Flight Track Log - Related Links

Times and Time Zones

All times are in EDT time to prevent confusion due to time zone crossing. See the FSR411 flight status page for this flight to view local times or setup timezone preferences in your user account.


Time Position Orientation Groundspeed Altitude Reporting Facility
EDT Latitude Longitude Course Direction KTS MPH feet Rate Location/Type
Tue 10:06:18 AM 37.4167 -77.6000 260° West 202 232 2,500  Level Potomac TRACON
Tue 10:07:50 AM 37.3969 -77.7356 260° West 256 295 7,700 3,098 Climbing Washington Center
Tue 10:08:51 AM 37.3786 -77.8264 256° West 266 306 10,400 2,705 Climbing Washington Center
Tue 10:09:52 AM 37.3600 -77.9303 257° West 285 328 13,200 2,876 Climbing Washington Center
Tue 10:10:52 AM 37.3367 -78.0525 257° West 324 373 16,200 2,847 Climbing Washington Center
Tue 10:11:50 AM 37.3131 -78.1797 257° West 360 414 18,800 1,900 Climbing Washington Center
Tue 10:12:52 AM 37.2911 -78.3278 259° West 394 453 20,000 787 Climbing Washington Center
Tue 10:13:52 AM 37.3233 -78.4594 287° West 385 443 20,400 1,424 Climbing Washington Center
Tue 10:14:50 AM 37.3642 -78.5917 291° West 392 451 22,800 2,350 Climbing Washington Center
Tue 10:15:52 AM 37.4044 -78.7267 291° West 405 466 25,100 2,250 Climbing Washington Center
Tue 10:16:50 AM 37.4428 -78.8483 292° West 410 472 27,300 2,136 Climbing Washington Center
Tue 10:17:50 AM 37.4828 -78.9864 290° West 415 478 29,300 1,934 Climbing Washington Center
Tue 10:18:51 AM 37.5228 -79.1217 290° West 415 478 31,200 2,132 Climbing Washington Center
Tue 10:19:51 AM 37.5683 -79.2731 291° West 420 483 33,600 2,132 Climbing Washington Center
Tue 10:20:52 AM 37.6058 -79.4033 290° West 414 476 35,500 2,033 Climbing Washington Center
Tue 10:21:52 AM 37.6433 -79.5311 290° West 401 461 37,700 1,881 Climbing Washington Center
Tue 10:22:50 AM 37.6792 -79.6486 291° West 384 442 39,200 1,160 Climbing Washington Center
Tue 10:23:51 AM 37.7108 -79.7631 289° West 368 423 40,000 397 Climbing Washington Center
Tue 10:24:51 AM 37.7497 -79.8992 290° West 381 438 40,000  Level Washington Center
Tue 10:25:52 AM 37.7867 -80.0300 290° West 381 438 40,000  Level Washington Center
Tue 10:27:42 AM 37.8492 -80.2467 290° West 391 450 40,000  Level Indianapolis Center
Tue 10:28:44 AM 37.8908 -80.3947 290° West 384 442 40,000  Level Indianapolis Center
Tue 10:29:46 AM 37.9289 -80.5244 290° West 387 445 40,000  Level Indianapolis Center
Tue 10:30:48 AM 37.9644 -80.6533 289° West 386 444 40,000  Level Indianapolis Center
Tue 10:31:50 AM 38.0006 -80.7819 290° West 386 444 40,000  Level Indianapolis Center
Tue 10:32:52 AM 38.0375 -80.9111 290° West 388 447 40,000  Level Indianapolis Center
Tue 10:33:54 AM 38.0775 -81.0356 292° West 382 440 40,000  Level Indianapolis Center
Tue 10:34:56 AM 38.1169 -81.1642 291° West 387 445 40,000  Level Indianapolis Center
Tue 10:35:58 AM 38.1561 -81.2906 292° West 384 442 40,000  Level Indianapolis Center
Tue 10:37:00 AM 38.2025 -81.4444 291° West 386 444 40,000  Level Indianapolis Center
Tue 10:38:02 AM 38.2414 -81.5728 291° West 387 445 40,000  Level Indianapolis Center
Tue 10:39:04 AM 38.2803 -81.7006 291° West 386 444 40,000  Level Indianapolis Center
Tue 10:40:06 AM 38.3189 -81.8292 291° West 387 445 40,000  Level Indianapolis Center
Tue 10:41:08 AM 38.3575 -81.9569 291° West 385 443 40,000  Level Indianapolis Center
Tue 10:42:10 AM 38.3969 -82.0878 291° West 391 450 40,000  Level Indianapolis Center
Tue 10:43:12 AM 38.4353 -82.2153 291° West 388 447 40,000  Level Indianapolis Center
Tue 10:44:14 AM 38.4725 -82.3436 290° West 384 442 40,000  Level Indianapolis Center
Tue 10:45:16 AM 38.5161 -82.4911 291° West 388 447 40,000  Level Indianapolis Center
Tue 10:46:18 AM 38.5528 -82.6189 290° West 385 443 40,000  Level Indianapolis Center
Tue 10:47:20 AM 38.5911 -82.7458 291° West 383 441 40,000  Level Indianapolis Center
Tue 10:48:22 AM 38.6339 -82.8961 290° West 385 443 40,000  Level Indianapolis Center
Tue 10:49:24 AM 38.6678 -83.0119 291° West 384 442 40,000  Level Indianapolis Center
Tue 10:50:26 AM 38.7036 -83.1394 290° West 383 441 40,000  Level Indianapolis Center
Tue 10:51:28 AM 38.7442 -83.2808 290° West 386 444 40,000  Level Indianapolis Center
Tue 10:52:30 AM 38.7806 -83.4078 290° West 384 442 40,000  Level Indianapolis Center
Tue 10:53:32 AM 38.8172 -83.5369 290° West 382 440 40,000  Level Indianapolis Center
Tue 10:54:33 AM 38.8533 -83.6661 290° West 379 436 40,000  Level Indianapolis Center
Tue 10:55:35 AM 38.8956 -83.8158 290° West 378 435 40,000 -290 Level Indianapolis Center
Tue 10:56:37 AM 38.9322 -83.9447 290° West 379 436 39,400 -774 Descending Indianapolis Center
Tue 10:57:39 AM 38.9672 -84.0769 289° West 384 442 38,400 -968 Descending Indianapolis Center
Tue 10:58:41 AM 39.0136 -84.2008 296° West 382 440 37,400 -1,016 Descending Indianapolis Center
Tue 10:59:43 AM 39.0775 -84.3158 306° West 389 448 36,300 -1,016 Descending Indianapolis Center
Tue 11:00:45 AM 39.1408 -84.4308 305° West 389 448 35,300 -976 Descending Indianapolis Center
Tue 11:01:46 AM 39.2047 -84.5486 305° West 399 459 34,300 -1,024 Descending Indianapolis Center
Tue 11:02:48 AM 39.2678 -84.6708 304° West 404 465 33,200 -1,016 Descending Indianapolis Center
Tue 11:03:50 AM 39.3322 -84.7922 304° West 404 465 32,200 -581 Descending Indianapolis Center
Tue 11:04:52 AM 39.3797 -84.9386 293° West 404 465 32,000 -97 Descending Indianapolis Center
Tue 11:05:54 AM 39.4083 -85.0831 284° West 413 475 32,000  Level Indianapolis Center
Tue 11:06:56 AM 39.4394 -85.2264 286° West 415 478 32,000  Level Indianapolis Center
Tue 11:07:57 AM 39.4692 -85.3683 285° West 412 474 32,000  Level Indianapolis Center
Tue 11:08:59 AM 39.5050 -85.5428 285° West 419 482 32,000  Level Indianapolis Center
Tue 11:10:01 AM 39.5353 -85.6894 285° West 423 487 32,000 -290 Level Indianapolis Center
Tue 11:11:03 AM 39.5664 -85.8361 285° West 424 488 31,400 -919 Descending Indianapolis Center
Tue 11:12:05 AM 39.5969 -85.9847 285° West 426 490 30,100 -1,500 Descending Indianapolis Center
Tue 11:13:07 AM 39.6264 -86.1325 285° West 424 488 28,300 -1,756 Descending Indianapolis Center
Tue 11:14:08 AM 39.6567 -86.2867 284° West 431 496 26,500 -1,756 Descending Indianapolis Center
Tue 11:15:10 AM 39.6892 -86.4458 285° West 441 507 24,700 -1,355 Descending Indianapolis Center
Tue 11:16:12 AM 39.7183 -86.5903 285° West 418 481 23,700 -823 Descending Indianapolis Center
Tue 11:17:14 AM 39.7472 -86.7350 285° West 414 476 23,000 -581 Descending Indianapolis Center
Tue 11:18:16 AM 39.7803 -86.9047 284° West 407 468 22,500 -1,306 Descending Indianapolis Center
Tue 11:19:18 AM 39.8061 -87.0356 284° West 379 436 20,300 -2,226 Descending Indianapolis Center
Tue 11:20:20 AM 39.8308 -87.1692 284° West 380 437 17,900 -2,177 Descending Indianapolis Center
Tue 11:21:22 AM 39.8567 -87.3036 284° West 383 441 15,800 -2,377 Descending Indianapolis Center
Tue 11:22:54 AM 39.8961 -87.5128 284° West 368 423 11,800 -2,341 Descending Chicago Center
Tue 11:23:25 AM 39.9056 -87.5600 285° West 363 418 11,000 -516 Descending Indianapolis Center
Tue 11:24:27 AM 39.9283 -87.6881 283° West 308 354 11,000 -387 Level Indianapolis Center
Tue 11:25:29 AM 39.9617 -87.7828 295° West 293 337 10,200 -1,113 Descending Indianapolis Center
Tue 11:26:31 AM 40.0067 -87.8728 303° West 295 339 8,700 -1,340 Descending Indianapolis Center
Tue 11:27:03 AM 40.0231 -87.9092 300° West 292 336 8,100 -1,404 Descending Chicago Center
Tue 11:28:05 AM 40.0725 -88.0092 303° West 278 320 6,500 -1,452 Descending Chicago Center
Tue 11:29:07 AM 40.1078 -88.0878 300° West 271 312 5,100 -1,113 Descending Chicago Center
Tue 11:30:09 AM 40.1511 -88.1797 302° West 267 307 4,200 -871 Descending Chicago Center
Tue 11:32:00 AM 40.0333 -88.2667 213° Southwest  Level FlightAware Approximate
Tue 11:39:00 AM 40.0388 -88.2778 213° Southwest  Level Estimated
Tue 11:40:00 AM 40.0388 -88.2778 213° Southwest  Level Estimated
Tue 11:41:00 AM 40.0388 -88.2778 213° Southwest  Level Estimated

Login

Don't have an account? Register now (free) for customized features, flight alerts, and more!